Time;durP1;ratioP1;P1;durP2;ratioP2;P2;SDS_P1;SDS_P2;PMS_P1;PMS_P2;Temp;Humidity;BMP_temperature;BMP_pressure;BME280_temperature;BME280_humidity;BME280_pressure;Samples;Min_cycle;Max_cycle;Signal;HPM_P1;HPM_P2
2022/01/19 00:01:23;;;;;;;50.85;23.73;;;4.50;99.90;;;;;;5047393;28;20036;-64
2022/01/19 00:03:49;;;;;;;48.83;23.70;;;4.50;99.90;;;;;;5050356;28;20059;-65
2022/01/19 00:06:15;;;;;;;49.65;23.80;;;4.50;99.90;;;;;;5043768;28;20526;-66
2022/01/19 00:08:41;;;;;;;46.70;23.23;;;4.40;99.90;;;;;;5046423;28;20042;-65
2022/01/19 00:11:06;;;;;;;52.13;24.02;;;4.50;99.90;;;;;;5049960;28;20475;-64
2022/01/19 00:13:32;;;;;;;51.83;23.63;;;4.40;99.90;;;;;;5037079;28;20051;-67
2022/01/19 00:15:58;;;;;;;47.80;21.92;;;4.40;99.90;;;;;;5051075;28;20049;-65
2022/01/19 00:18:25;;;;;;;48.63;22.35;;;4.40;99.90;;;;;;5048780;28;20037;-65
2022/01/19 00:20:52;;;;;;;41.30;19.63;;;4.40;99.90;;;;;;5043043;28;20060;-66
2022/01/19 00:23:18;;;;;;;50.20;21.85;;;4.40;99.90;;;;;;5041566;28;20048;-64
2022/01/19 00:25:46;;;;;;;43.30;19.77;;;4.40;99.90;;;;;;5048369;28;20052;-65
2022/01/19 00:28:12;;;;;;;41.33;18.50;;;4.30;99.90;;;;;;5049094;28;20048;-64
2022/01/19 00:30:38;;;;;;;38.47;17.95;;;4.30;99.90;;;;;;5051742;28;20449;-66
2022/01/19 00:33:04;;;;;;;39.03;18.88;;;4.30;99.90;;;;;;5050519;28;20049;-66
2022/01/19 00:35:29;;;;;;;41.90;18.33;;;4.30;99.90;;;;;;5052850;28;20068;-65
2022/01/19 00:37:55;;;;;;;43.17;18.92;;;4.30;99.90;;;;;;5043373;28;20041;-65
2022/01/19 00:40:21;;;;;;;43.67;18.13;;;4.30;99.90;;;;;;5043964;28;20076;-66
2022/01/19 00:42:49;;;;;;;46.55;17.95;;;4.20;99.90;;;;;;5038816;28;20041;-66
2022/01/19 00:45:15;;;;;;;43.97;18.90;;;4.20;99.90;;;;;;5052232;28;20039;-65
2022/01/19 00:47:42;;;;;;;49.63;19.48;;;4.20;99.90;;;;;;5048157;28;20474;-65
2022/01/19 00:50:10;;;;;;;53.45;20.83;;;4.20;99.90;;;;;;5047358;28;20474;-65
2022/01/19 00:52:36;;;;;;;43.75;18.58;;;4.30;99.90;;;;;;5047769;28;20029;-64
2022/01/19 00:55:07;;;;;;;47.05;19.50;;;4.20;99.90;;;;;;5038444;28;20532;-66
2022/01/19 00:57:32;;;;;;;53.35;20.15;;;4.20;99.90;;;;;;5045785;28;20410;-66
2022/01/19 00:59:58;;;;;;;48.72;22.13;;;4.20;99.90;;;;;;5050247;28;20041;-65
2022/01/19 01:02:24;;;;;;;52.53;22.65;;;4.20;99.90;;;;;;5063273;28;20053;-65
2022/01/19 01:04:50;;;;;;;48.47;21.50;;;4.20;99.90;;;;;;5046275;28;20041;-64
2022/01/19 01:07:16;;;;;;;58.85;22.33;;;4.10;99.90;;;;;;5051188;28;20029;-65
2022/01/19 01:09:41;;;;;;;61.20;23.85;;;4.10;99.90;;;;;;5044110;28;20048;-65
2022/01/19 01:20:09;;;;;;;63.55;24.42;;;4.10;99.90;;;;;;5038558;28;20053;-65
2022/01/19 01:22:36;;;;;;;60.88;23.98;;;4.10;99.90;;;;;;5048073;28;20096;-63
2022/01/19 01:25:03;;;;;;;57.83;24.30;;;4.10;99.90;;;;;;5049374;28;20049;-64
2022/01/19 01:27:29;;;;;;;53.90;24.35;;;4.10;99.90;;;;;;5047773;28;20040;-64
2022/01/19 01:29:54;;;;;;;56.25;24.33;;;4.10;99.90;;;;;;5050466;28;20510;-66
2022/01/19 01:32:20;;;;;;;62.88;25.55;;;4.20;99.90;;;;;;5041357;28;20094;-65
2022/01/19 01:34:46;;;;;;;63.17;24.05;;;4.10;99.90;;;;;;5052062;28;20043;-65
2022/01/19 01:37:12;;;;;;;57.53;24.58;;;4.10;99.90;;;;;;5051698;28;20041;-65
2022/01/19 01:39:38;;;;;;;72.82;26.92;;;4.10;99.90;;;;;;5053136;28;20049;-65
2022/01/19 01:42:11;;;;;;;63.95;26.23;;;4.10;99.90;;;;;;5048769;28;20049;-64
2022/01/19 01:44:39;;;;;;;64.45;24.75;;;4.10;99.90;;;;;;5054279;28;20049;-64
2022/01/19 01:47:06;;;;;;;62.58;25.42;;;4.10;99.90;;;;;;5047226;28;20154;-65
2022/01/19 01:55:12;;;;;;;65.82;27.48;;;4.10;99.90;;;;;;5037291;28;20061;-64
2022/01/19 01:57:38;;;;;;;64.15;27.15;;;4.10;99.90;;;;;;5043520;28;20064;-65
2022/01/19 02:00:06;;;;;;;64.93;26.63;;;4.10;99.90;;;;;;5053078;28;20037;-65
2022/01/19 02:02:32;;;;;;;71.45;27.05;;;4.10;99.90;;;;;;5049408;28;20052;-65
2022/01/19 02:04:57;;;;;;;72.32;26.13;;;4.10;99.90;;;;;;5054108;28;20040;-63
2022/01/19 02:10:17;;;;;;;68.35;24.20;;;4.10;99.90;;;;;;5043095;28;20053;-64
2022/01/19 02:21:45;;;;;;;66.22;25.50;;;4.10;99.90;;;;;;5006694;28;20651;-64
2022/01/19 02:24:14;;;;;;;78.45;26.60;;;4.10;99.90;;;;;;5037157;28;20056;-64
2022/01/19 02:40:18;;;;;;;80.68;28.50;;;4.10;99.90;;;;;;5039255;28;20479;-64
2022/01/19 02:50:32;;;;;;;81.30;27.90;;;4.20;99.90;;;;;;5050352;28;20045;-65
2022/01/19 02:52:58;;;;;;;73.53;28.25;;;4.20;99.90;;;;;;5040000;28;20048;-66
2022/01/19 02:55:24;;;;;;;77.13;29.63;;;4.20;99.90;;;;;;5048492;28;20033;-64
2022/01/19 02:57:50;;;;;;;80.70;29.67;;;4.20;99.90;;;;;;5048219;28;20044;-64
2022/01/19 03:08:47;;;;;;;87.60;30.13;;;4.20;99.90;;;;;;5044498;28;20073;-65
2022/01/19 03:11:15;;;;;;;83.28;30.40;;;4.30;99.90;;;;;;5085874;28;20081;-65
2022/01/19 03:13:42;;;;;;;84.88;26.52;;;4.20;99.90;;;;;;5049986;28;20051;-64
2022/01/19 03:16:08;;;;;;;68.05;28.95;;;4.20;99.90;;;;;;5047630;28;20415;-64
2022/01/19 03:18:33;;;;;;;90.13;29.75;;;4.20;99.90;;;;;;5052558;28;20052;-64
2022/01/19 03:20:59;;;;;;;83.35;30.70;;;4.20;99.90;;;;;;5047668;28;20071;-65
2022/01/19 03:23:25;;;;;;;88.30;29.60;;;4.20;99.90;;;;;;5061085;28;20478;-64
2022/01/19 03:25:52;;;;;;;82.00;29.42;;;4.20;99.90;;;;;;5045105;28;20099;-64
2022/01/19 03:28:18;;;;;;;93.50;29.40;;;4.20;99.90;;;;;;5048135;28;20064;-65
2022/01/19 03:30:45;;;;;;;95.68;30.48;;;4.20;99.90;;;;;;5044740;28;20407;-64
2022/01/19 03:33:11;;;;;;;97.03;30.30;;;4.20;99.90;;;;;;5047481;28;20049;-64
2022/01/19 03:35:40;;;;;;;87.22;29.52;;;4.20;99.90;;;;;;5050727;28;20049;-66
2022/01/19 03:38:08;;;;;;;82.43;27.70;;;4.20;99.90;;;;;;5048638;28;20080;-63
2022/01/19 03:40:35;;;;;;;90.28;28.20;;;4.30;99.90;;;;;;5051138;28;20565;-64
2022/01/19 03:43:02;;;;;;;88.32;27.38;;;4.20;99.90;;;;;;5047686;28;20041;-65
2022/01/19 03:45:28;;;;;;;81.57;27.02;;;4.20;99.90;;;;;;5050870;28;20049;-65
2022/01/19 03:48:13;;;;;;;80.00;28.38;;;4.20;99.90;;;;;;5052095;28;20041;-65
2022/01/19 03:50:39;;;;;;;86.85;28.60;;;4.20;99.90;;;;;;5036149;28;20064;-64
2022/01/19 03:53:05;;;;;;;93.20;29.25;;;4.20;99.90;;;;;;5053909;28;20040;-64
2022/01/19 03:55:30;;;;;;;94.45;29.25;;;4.20;99.90;;;;;;5047632;28;20041;-64
2022/01/19 03:57:56;;;;;;;90.75;28.65;;;4.20;99.90;;;;;;5048064;28;20041;-64
2022/01/19 04:00:21;;;;;;;90.25;28.63;;;4.20;99.90;;;;;;5039022;28;20114;-64
2022/01/19 04:02:48;;;;;;;85.78;28.30;;;4.20;99.90;;;;;;5054626;28;20052;-65
2022/01/19 04:05:37;;;;;;;88.65;27.73;;;4.20;99.90;;;;;;5059934;28;20184;-64
2022/01/19 04:08:04;;;;;;;91.55;27.48;;;4.20;99.90;;;;;;5052676;28;20398;-64
2022/01/19 04:10:29;;;;;;;77.32;27.45;;;4.20;99.90;;;;;;5050268;28;20197;-64
2022/01/19 04:13:08;;;;;;;78.03;27.13;;;4.20;99.90;;;;;;5050646;28;20597;-64
2022/01/19 04:15:33;;;;;;;72.63;26.73;;;4.20;99.90;;;;;;5050178;28;20045;-64
2022/01/19 04:17:59;;;;;;;67.13;26.13;;;4.20;99.90;;;;;;5047507;28;20162;-63
2022/01/19 04:20:26;;;;;;;65.07;23.27;;;4.20;99.90;;;;;;5035323;28;20045;-64
2022/01/19 04:22:53;;;;;;;74.20;26.48;;;4.20;99.90;;;;;;5052791;28;20111;-65
2022/01/19 04:25:18;;;;;;;70.40;25.80;;;4.10;99.90;;;;;;5051277;28;20045;-64
2022/01/19 04:27:45;;;;;;;68.15;26.10;;;4.10;99.90;;;;;;5057686;28;20041;-64
2022/01/19 04:30:14;;;;;;;74.60;25.63;;;4.10;99.90;;;;;;5046687;28;20033;-66
2022/01/19 04:35:25;;;;;;;75.93;27.42;;;4.10;99.90;;;;;;5049161;28;20049;-66
2022/01/19 05:04:55;;;;;;;73.13;27.70;;;4.10;99.90;;;;;;5045813;28;20049;-65
2022/01/19 05:15:45;;;;;;;79.97;28.35;;;4.10;99.90;;;;;;5049501;28;20052;-66
2022/01/19 05:18:12;;;;;;;78.40;29.02;;;4.10;99.90;;;;;;5050552;28;20411;-64
2022/01/19 05:20:37;;;;;;;65.25;27.17;;;4.10;99.90;;;;;;5041845;28;20053;-65
2022/01/19 05:23:04;;;;;;;77.65;29.17;;;4.10;99.90;;;;;;5043307;28;20452;-64
2022/01/19 05:25:30;;;;;;;72.47;28.02;;;4.10;99.90;;;;;;5064705;28;20099;-64
2022/01/19 05:27:55;;;;;;;63.20;27.52;;;4.10;99.90;;;;;;5075445;28;20076;-65
2022/01/19 05:30:21;;;;;;;75.10;28.67;;;4.10;99.90;;;;;;5040752;28;20354;-65
2022/01/19 05:32:47;;;;;;;70.28;27.17;;;4.10;99.90;;;;;;5051772;28;20053;-65
2022/01/19 05:35:13;;;;;;;69.90;26.95;;;4.10;99.90;;;;;;5049183;28;20045;-66
2022/01/19 05:37:39;;;;;;;67.95;27.00;;;4.10;99.90;;;;;;5048438;28;20052;-66
2022/01/19 05:40:08;;;;;;;63.35;26.77;;;4.10;99.90;;;;;;5049485;28;20545;-64
2022/01/19 05:42:33;;;;;;;60.53;26.13;;;4.20;99.90;;;;;;5050496;28;20144;-63
2022/01/19 05:45:00;;;;;;;61.17;26.55;;;4.20;99.90;;;;;;5046629;28;20132;-65
2022/01/19 05:47:25;;;;;;;60.58;26.55;;;4.20;99.90;;;;;;5047413;28;20049;-64
2022/01/19 05:49:51;;;;;;;57.28;25.27;;;4.20;99.90;;;;;;5036021;28;20374;-63
2022/01/19 05:52:17;;;;;;;62.22;26.08;;;4.20;99.90;;;;;;5044276;28;20065;-64
2022/01/19 05:54:43;;;;;;;62.50;26.52;;;4.10;99.90;;;;;;5047350;28;20049;-64
2022/01/19 05:57:10;;;;;;;61.58;25.63;;;4.10;99.90;;;;;;5043872;28;20044;-65
2022/01/19 05:59:35;;;;;;;65.10;26.48;;;4.10;99.90;;;;;;5050991;28;20080;-65
2022/01/19 06:02:01;;;;;;;55.58;25.52;;;4.10;99.90;;;;;;5048146;28;20073;-64
2022/01/19 06:04:27;;;;;;;59.63;24.63;;;4.10;99.90;;;;;;5044596;28;20048;-64
2022/01/19 06:06:55;;;;;;;60.90;26.50;;;4.10;99.90;;;;;;5039967;28;20593;-64
2022/01/19 06:09:49;;;;;;;63.60;25.98;;;4.10;99.90;;;;;;5048095;28;20048;-65
2022/01/19 06:12:16;;;;;;;66.63;25.35;;;4.10;99.90;;;;;;5051772;28;20086;-65
2022/01/19 06:14:43;;;;;;;58.95;24.65;;;4.10;99.90;;;;;;5047916;28;20041;-64
2022/01/19 06:17:12;;;;;;;57.08;25.23;;;4.10;99.90;;;;;;5016860;28;20124;-66
2022/01/19 06:19:38;;;;;;;61.88;25.80;;;4.10;99.90;;;;;;5078330;28;20564;-65
2022/01/19 06:22:03;;;;;;;62.95;24.27;;;4.10;99.90;;;;;;5042713;28;20073;-65
2022/01/19 06:24:29;;;;;;;62.83;25.27;;;4.10;99.90;;;;;;5055736;28;20041;-65
2022/01/19 06:26:55;;;;;;;56.90;25.52;;;4.10;99.90;;;;;;5049505;28;20038;-65
2022/01/19 06:29:21;;;;;;;61.58;26.15;;;4.10;99.90;;;;;;5045793;28;20041;-66
2022/01/19 06:31:47;;;;;;;66.78;26.25;;;4.10;99.90;;;;;;5048862;28;20051;-65
2022/01/19 06:34:13;;;;;;;56.17;26.48;;;4.10;99.90;;;;;;5048718;28;20098;-66
2022/01/19 06:36:39;;;;;;;58.90;25.45;;;4.10;99.90;;;;;;5049057;28;20512;-65
2022/01/19 06:39:05;;;;;;;60.75;26.98;;;4.10;99.90;;;;;;5039986;28;20120;-66
2022/01/19 06:41:31;;;;;;;62.55;26.35;;;4.10;99.90;;;;;;5043928;28;20084;-67
2022/01/19 06:43:57;;;;;;;56.65;26.33;;;4.10;99.90;;;;;;5047330;28;20490;-67
2022/01/19 06:46:22;;;;;;;62.75;27.65;;;4.10;99.90;;;;;;5047690;28;20471;-66
2022/01/19 06:48:48;;;;;;;64.85;26.92;;;4.10;99.90;;;;;;5036548;28;20053;-67
2022/01/19 06:51:13;;;;;;;64.25;28.63;;;4.10;99.90;;;;;;5050395;28;20048;-65
2022/01/19 06:53:39;;;;;;;61.00;27.75;;;4.10;99.90;;;;;;5051051;28;20399;-65
2022/01/19 06:56:05;;;;;;;62.25;28.02;;;4.10;99.90;;;;;;5047372;28;20099;-65
2022/01/19 06:58:30;;;;;;;58.75;26.02;;;4.10;99.90;;;;;;5041589;28;20702;-64
2022/01/19 07:00:56;;;;;;;55.13;25.75;;;4.10;99.90;;;;;;5045134;28;20037;-65
2022/01/19 07:03:22;;;;;;;59.38;26.30;;;4.10;99.90;;;;;;5048561;28;20041;-64
2022/01/19 07:05:49;;;;;;;60.53;26.90;;;4.10;99.90;;;;;;5058475;28;20556;-64
2022/01/19 07:08:15;;;;;;;64.63;26.55;;;4.20;99.90;;;;;;5050004;28;20042;-65
2022/01/19 07:10:41;;;;;;;65.15;27.73;;;4.20;99.90;;;;;;5047955;28;20372;-64
2022/01/19 07:13:07;;;;;;;61.85;26.88;;;4.20;99.90;;;;;;5045220;28;20044;-65
2022/01/19 07:15:33;;;;;;;58.80;26.88;;;4.20;99.90;;;;;;5051621;28;20562;-64
2022/01/19 07:17:59;;;;;;;59.45;25.45;;;4.10;99.90;;;;;;5046763;28;20042;-65
2022/01/19 07:20:25;;;;;;;60.75;26.08;;;4.20;99.90;;;;;;5053299;28;20136;-65
2022/01/19 07:22:51;;;;;;;61.75;26.90;;;4.20;99.90;;;;;;5046061;28;20124;-65
2022/01/19 07:25:17;;;;;;;67.32;26.88;;;4.30;99.90;;;;;;5040940;28;20045;-65
2022/01/19 07:27:43;;;;;;;60.22;27.23;;;4.20;99.90;;;;;;5040845;28;20051;-65
2022/01/19 07:30:10;;;;;;;54.85;26.23;;;4.20;99.90;;;;;;5053565;28;20041;-64
2022/01/19 07:32:37;;;;;;;59.78;27.60;;;4.20;99.90;;;;;;5048456;28;20037;-64
2022/01/19 07:35:04;;;;;;;52.72;26.23;;;4.20;99.90;;;;;;5033775;28;20418;-65
2022/01/19 07:37:30;;;;;;;58.58;26.73;;;4.20;99.90;;;;;;5033759;28;20053;-65
2022/01/19 07:39:57;;;;;;;55.45;25.70;;;4.20;99.90;;;;;;5052653;28;20085;-64
2022/01/19 07:42:23;;;;;;;66.90;28.33;;;4.20;99.90;;;;;;5051196;28;20124;-65
2022/01/19 07:44:49;;;;;;;68.40;28.10;;;4.20;99.90;;;;;;5046012;28;20092;-64
2022/01/19 07:47:15;;;;;;;57.67;27.05;;;4.20;99.90;;;;;;5053394;28;20084;-64
2022/01/19 07:49:41;;;;;;;59.30;26.38;;;4.20;99.90;;;;;;5051494;28;20045;-64
2022/01/19 07:52:07;;;;;;;55.63;26.15;;;4.20;99.90;;;;;;5048383;28;20053;-64
2022/01/19 07:54:32;;;;;;;57.17;26.27;;;4.20;99.90;;;;;;5041891;28;20037;-65
2022/01/19 07:56:58;;;;;;;55.75;25.88;;;4.20;99.90;;;;;;5047893;28;20460;-65
2022/01/19 07:59:24;;;;;;;58.40;27.00;;;4.20;99.90;;;;;;5052885;28;20081;-64
2022/01/19 08:01:49;;;;;;;54.95;27.05;;;4.20;99.90;;;;;;5038559;28;20064;-65
2022/01/19 08:04:15;;;;;;;64.75;26.70;;;4.20;99.90;;;;;;5062997;28;20429;-66
2022/01/19 08:06:41;;;;;;;59.60;27.38;;;4.20;99.90;;;;;;5033220;28;20462;-66
2022/01/19 08:09:07;;;;;;;64.25;27.02;;;4.20;99.90;;;;;;5034555;28;20084;-65
2022/01/19 08:11:33;;;;;;;57.15;26.85;;;4.30;99.90;;;;;;5047345;28;20045;-66
2022/01/19 08:13:59;;;;;;;60.97;26.17;;;4.20;99.90;;;;;;5051673;28;20063;-64
2022/01/19 08:16:25;;;;;;;57.97;27.05;;;4.20;99.90;;;;;;5049134;28;20051;-64
2022/01/19 08:18:50;;;;;;;60.22;28.52;;;4.20;99.90;;;;;;5037860;28;20117;-66
2022/01/19 08:21:16;;;;;;;57.78;27.02;;;4.20;99.90;;;;;;5035924;28;20033;-65
2022/01/19 08:23:42;;;;;;;60.58;29.70;;;4.20;99.90;;;;;;5044831;28;20136;-64
2022/01/19 08:26:07;;;;;;;69.65;28.35;;;4.20;99.90;;;;;;5044327;28;20045;-64
2022/01/19 08:28:33;;;;;;;68.38;28.20;;;4.20;99.90;;;;;;5067390;28;20044;-64
2022/01/19 08:30:59;;;;;;;58.50;27.77;;;4.20;99.90;;;;;;5052789;28;20076;-66
2022/01/19 08:33:24;;;;;;;64.15;27.67;;;4.30;99.90;;;;;;5045452;28;20030;-64
2022/01/19 08:35:51;;;;;;;65.55;28.55;;;4.30;99.90;;;;;;5040570;28;20136;-67
2022/01/19 08:38:18;;;;;;;63.22;28.42;;;4.30;99.90;;;;;;5054992;28;20518;-67
2022/01/19 08:40:44;;;;;;;63.30;28.58;;;4.30;99.90;;;;;;5042311;28;20136;-64
2022/01/19 08:43:10;;;;;;;54.05;26.48;;;4.30;99.90;;;;;;5050523;28;20048;-64
2022/01/19 08:45:36;;;;;;;67.35;28.50;;;4.40;99.90;;;;;;5047318;28;20041;-64
2022/01/19 08:48:02;;;;;;;58.63;28.55;;;4.40;99.90;;;;;;5045847;28;20380;-63
2022/01/19 08:50:28;;;;;;;60.22;27.42;;;4.40;99.90;;;;;;5031016;28;20048;-66
2022/01/19 08:52:54;;;;;;;68.28;29.42;;;4.70;99.90;;;;;;5041294;28;20476;-65
2022/01/19 08:55:20;;;;;;;60.05;29.38;;;4.50;99.90;;;;;;5062204;28;20049;-65
2022/01/19 08:57:46;;;;;;;62.33;29.15;;;4.60;99.90;;;;;;5042415;28;20045;-63
2022/01/19 09:00:15;;;;;;;65.03;29.92;;;4.70;99.90;;;;;;5035305;28;20122;-64
2022/01/19 09:02:42;;;;;;;60.90;28.20;;;4.70;99.90;;;;;;5074279;28;20044;-63
2022/01/19 09:05:08;;;;;;;71.93;30.33;;;4.70;99.90;;;;;;5051691;28;20572;-63
2022/01/19 09:07:33;;;;;;;68.03;30.20;;;4.80;99.90;;;;;;5049713;28;20063;-63
2022/01/19 09:10:00;;;;;;;59.45;27.98;;;4.80;99.90;;;;;;5051991;28;20045;-63
2022/01/19 09:12:26;;;;;;;63.65;30.35;;;4.90;99.90;;;;;;5040325;28;20605;-66
2022/01/19 09:14:52;;;;;;;64.07;28.95;;;5.10;99.90;;;;;;5047195;28;20033;-65
2022/01/19 09:17:17;;;;;;;67.22;30.88;;;5.70;99.90;;;;;;5041159;28;20430;-64
2022/01/19 09:19:43;;;;;;;68.18;30.88;;;5.00;99.90;;;;;;5048698;28;20486;-64
2022/01/19 09:22:10;;;;;;;71.57;30.50;;;4.90;99.90;;;;;;5024046;28;20135;-63
2022/01/19 09:24:39;;;;;;;65.25;28.20;;;4.90;99.90;;;;;;5046793;28;20091;-63
2022/01/19 09:27:08;;;;;;;62.20;30.45;;;5.00;99.90;;;;;;5036980;28;20099;-64
2022/01/19 09:29:34;;;;;;;65.18;29.63;;;5.00;99.90;;;;;;5050158;28;20098;-66
2022/01/19 09:32:01;;;;;;;68.57;30.17;;;5.10;99.90;;;;;;5051336;28;20479;-64
2022/01/19 09:34:27;;;;;;;57.83;29.48;;;5.00;99.90;;;;;;5045869;28;20551;-62
2022/01/19 09:36:53;;;;;;;64.95;29.63;;;5.00;99.90;;;;;;5034552;28;20053;-66
2022/01/19 09:39:25;;;;;;;64.60;29.05;;;5.10;99.90;;;;;;5046957;28;20060;-64
2022/01/19 09:41:51;;;;;;;61.30;30.17;;;5.10;99.90;;;;;;5046656;28;20525;-65
2022/01/19 09:44:18;;;;;;;59.67;29.38;;;5.10;99.90;;;;;;5042712;28;20502;-66
2022/01/19 09:46:45;;;;;;;65.28;29.90;;;5.10;99.90;;;;;;5029814;28;20564;-66
2022/01/19 09:49:12;;;;;;;75.80;30.77;;;5.10;99.90;;;;;;5039136;28;20495;-65
2022/01/19 09:51:40;;;;;;;63.38;31.70;;;5.20;99.90;;;;;;5032445;28;20438;-65
2022/01/19 09:54:06;;;;;;;64.40;30.52;;;5.20;99.90;;;;;;5076387;28;20052;-64
2022/01/19 09:56:32;;;;;;;60.90;29.67;;;5.20;99.90;;;;;;5046222;28;20033;-65
2022/01/19 09:58:57;;;;;;;63.10;29.77;;;5.20;99.90;;;;;;5039599;28;20041;-65
2022/01/19 10:01:25;;;;;;;63.03;29.05;;;5.20;99.90;;;;;;5055430;28;20068;-65
2022/01/19 10:03:51;;;;;;;61.42;28.98;;;5.20;99.90;;;;;;5038707;28;20037;-64
2022/01/19 10:06:22;;;;;;;67.47;28.17;;;5.10;99.90;;;;;;5048971;28;20080;-66
2022/01/19 10:08:49;;;;;;;60.22;28.55;;;5.10;99.90;;;;;;5052638;28;20044;-64
2022/01/19 10:16:58;;;;;;;63.83;30.25;;;5.10;99.90;;;;;;5036349;28;20045;-65
2022/01/19 10:17:04;;;;;;;73.63;31.73;;;5.10;99.90;;;;;;5034855;28;20054;-65
2022/01/19 10:19:43;;;;;;;62.33;30.40;;;5.10;99.90;;;;;;5053671;28;20053;-66
2022/01/19 10:22:17;;;;;;;65.77;31.43;;;5.10;99.90;;;;;;5035744;28;20111;-66
2022/01/19 10:24:51;;;;;;;64.80;31.23;;;5.10;99.90;;;;;;5052511;28;20369;-64
2022/01/19 10:27:21;;;;;;;69.15;34.33;;;5.00;99.90;;;;;;5048419;28;20040;-66
2022/01/19 10:29:52;;;;;;;64.05;31.10;;;5.00;99.90;;;;;;5063124;28;20566;-65
2022/01/19 10:32:21;;;;;;;59.83;31.27;;;5.00;99.90;;;;;;5052472;28;20061;-65
2022/01/19 10:34:47;;;;;;;71.13;33.33;;;5.00;99.90;;;;;;5049686;28;20045;-66
2022/01/19 10:37:13;;;;;;;70.75;32.63;;;4.90;99.90;;;;;;5046789;28;20087;-65
2022/01/19 10:39:49;;;;;;;73.05;31.60;;;5.00;99.90;;;;;;5050009;28;20279;-64
2022/01/19 10:42:21;;;;;;;66.93;30.80;;;4.90;99.90;;;;;;5054320;28;20124;-64
2022/01/19 10:44:50;;;;;;;76.38;33.90;;;5.00;99.90;;;;;;5051505;28;20398;-66
2022/01/19 10:47:17;;;;;;;70.68;31.90;;;5.00;99.90;;;;;;5048064;28;20506;-66
2022/01/19 10:49:56;;;;;;;70.95;32.28;;;5.00;99.90;;;;;;5054803;28;20116;-64
2022/01/19 10:52:29;;;;;;;66.15;31.73;;;5.00;99.90;;;;;;5052863;28;20037;-63
2022/01/19 10:54:57;;;;;;;63.33;31.52;;;5.00;99.90;;;;;;5056325;28;20041;-63
2022/01/19 10:57:24;;;;;;;71.63;33.95;;;5.10;99.90;;;;;;5054220;28;20052;-64
2022/01/19 10:59:50;;;;;;;74.35;33.47;;;5.00;99.90;;;;;;5052625;28;20045;-64
2022/01/19 11:02:17;;;;;;;71.05;32.95;;;5.10;99.90;;;;;;5038651;28;20056;-65
2022/01/19 11:04:45;;;;;;;69.50;33.40;;;5.00;99.90;;;;;;5042041;28;20046;-64
2022/01/19 11:07:19;;;;;;;71.70;33.72;;;5.10;99.90;;;;;;5050230;28;20421;-64
2022/01/19 11:09:46;;;;;;;63.13;32.80;;;5.10;99.90;;;;;;5087592;28;20059;-64
2022/01/19 11:12:16;;;;;;;66.07;31.77;;;5.10;99.90;;;;;;5053116;28;20049;-65
2022/01/19 11:14:42;;;;;;;68.50;33.80;;;5.10;99.90;;;;;;5052625;28;20053;-64
2022/01/19 11:17:09;;;;;;;71.53;32.28;;;5.10;99.90;;;;;;5053940;28;20056;-64
2022/01/19 11:19:45;;;;;;;68.93;33.88;;;5.10;99.90;;;;;;5045810;28;20050;-65
2022/01/19 11:22:35;;;;;;;64.97;32.25;;;5.10;99.90;;;;;;5042737;28;20541;-64
2022/01/19 11:25:24;;;;;;;70.40;33.70;;;5.20;99.90;;;;;;5053857;28;20049;-64
2022/01/19 11:27:51;;;;;;;68.93;34.40;;;5.20;99.90;;;;;;5049969;28;20060;-64
2022/01/19 11:30:35;;;;;;;63.72;31.67;;;5.30;99.90;;;;;;5051911;28;20049;-63
2022/01/19 11:33:26;;;;;;;68.88;32.35;;;5.30;99.90;;;;;;5052898;28;20049;-64
2022/01/19 11:36:34;;;;;;;71.50;33.60;;;5.40;99.90;;;;;;5049437;28;20044;-64
2022/01/19 11:39:22;;;;;;;68.68;34.22;;;5.50;99.90;;;;;;5051195;28;20052;-64
2022/01/19 11:41:59;;;;;;;67.55;32.58;;;5.60;99.90;;;;;;5048221;28;20048;-64
2022/01/19 11:44:30;;;;;;;66.40;32.35;;;5.60;99.90;;;;;;5045938;28;20068;-64
2022/01/19 11:47:17;;;;;;;63.60;33.45;;;5.70;99.90;;;;;;5039959;28;20460;-64
2022/01/19 11:49:45;;;;;;;71.53;34.95;;;5.80;99.90;;;;;;5042459;28;20060;-64
2022/01/19 11:52:11;;;;;;;65.95;32.83;;;5.90;99.90;;;;;;5053766;28;20045;-65
2022/01/19 11:54:37;;;;;;;67.03;32.63;;;5.90;99.90;;;;;;5053330;28;20055;-65
2022/01/19 11:57:08;;;;;;;67.80;32.70;;;6.00;99.90;;;;;;5041326;28;20041;-63
2022/01/19 11:59:53;;;;;;;66.70;32.30;;;6.00;99.90;;;;;;5052947;28;20049;-64
2022/01/19 12:02:24;;;;;;;63.10;32.75;;;6.00;99.90;;;;;;5038185;28;20049;-64
2022/01/19 12:05:12;;;;;;;69.95;33.25;;;6.10;99.90;;;;;;5052039;28;20052;-65
2022/01/19 12:07:53;;;;;;;65.38;33.80;;;6.10;99.90;;;;;;5050415;28;20379;-66
2022/01/19 12:10:31;;;;;;;66.03;32.58;;;6.10;99.90;;;;;;5036086;28;20560;-66
2022/01/19 12:16:33;;;;;;;63.17;31.17;;;6.00;99.90;;;;;;5050012;28;20168;-67
2022/01/19 12:19:06;;;;;;;65.95;32.55;;;5.90;99.90;;;;;;5050524;28;20534;-65
2022/01/19 12:21:32;;;;;;;61.83;31.80;;;5.90;99.90;;;;;;5044851;28;20564;-64
2022/01/19 12:24:19;;;;;;;64.95;32.10;;;5.90;99.90;;;;;;5058382;28;20041;-65
2022/01/19 12:26:47;;;;;;;67.65;32.60;;;5.90;99.90;;;;;;5045347;28;20067;-65
2022/01/19 12:29:33;;;;;;;67.47;32.53;;;5.90;99.90;;;;;;5047321;28;20045;-64
2022/01/19 12:32:04;;;;;;;68.90;31.75;;;5.80;99.90;;;;;;5046590;28;20040;-64
2022/01/19 12:34:42;;;;;;;67.72;31.73;;;5.90;99.90;;;;;;5045055;28;20045;-65
2022/01/19 12:37:08;;;;;;;69.60;32.15;;;5.80;99.90;;;;;;5048972;28;20045;-65
2022/01/19 12:39:37;;;;;;;60.85;31.13;;;5.80;99.90;;;;;;5063282;28;20080;-64
2022/01/19 12:42:15;;;;;;;71.47;31.08;;;5.80;99.90;;;;;;5049317;28;20099;-65
2022/01/19 12:44:48;;;;;;;60.25;30.20;;;5.80;99.90;;;;;;5047276;28;20067;-66
2022/01/19 12:47:28;;;;;;;62.67;30.50;;;5.80;99.90;;;;;;5052813;28;20138;-65
2022/01/19 12:49:55;;;;;;;64.30;31.77;;;5.80;99.90;;;;;;5037910;28;20045;-66
2022/01/19 12:52:24;;;;;;;68.05;31.45;;;5.80;99.90;;;;;;5051185;28;20099;-66
2022/01/19 12:54:51;;;;;;;69.07;32.30;;;5.80;99.90;;;;;;5051578;28;20041;-65
2022/01/19 12:57:17;;;;;;;58.03;29.38;;;5.80;99.90;;;;;;5067327;28;20045;-65
2022/01/19 12:59:51;;;;;;;61.58;29.38;;;5.90;99.90;;;;;;5051024;28;20044;-66
2022/01/19 13:02:20;;;;;;;63.65;30.80;;;5.90;99.90;;;;;;5049403;28;20049;-67
2022/01/19 13:04:47;;;;;;;61.47;28.83;;;6.20;99.90;;;;;;5047455;28;20049;-67
2022/01/19 13:07:22;;;;;;;62.78;29.00;;;6.00;99.90;;;;;;5043697;28;20446;-66
2022/01/19 13:10:13;;;;;;;51.58;26.52;;;5.90;99.90;;;;;;5057344;28;20049;-65
2022/01/19 13:12:49;;;;;;;66.25;29.48;;;6.00;99.90;;;;;;5045805;28;20040;-64
2022/01/19 13:15:16;;;;;;;67.13;28.50;;;5.90;99.90;;;;;;5050287;28;20049;-65
2022/01/19 13:17:45;;;;;;;62.35;28.77;;;5.90;99.90;;;;;;5050332;28;20048;-66
2022/01/19 13:20:14;;;;;;;64.53;30.42;;;5.90;99.90;;;;;;5046922;28;20420;-66
2022/01/19 13:22:44;;;;;;;61.95;29.60;;;5.90;99.90;;;;;;5052022;28;20051;-65
2022/01/19 13:25:22;;;;;;;57.72;28.77;;;5.90;99.90;;;;;;5055041;28;20075;-65
2022/01/19 13:27:49;;;;;;;62.08;30.27;;;5.90;99.90;;;;;;5051698;28;20489;-65
2022/01/19 13:30:16;;;;;;;59.65;29.73;;;5.90;99.90;;;;;;5050844;28;20037;-65
2022/01/19 13:32:42;;;;;;;67.70;29.95;;;5.80;99.90;;;;;;5051279;28;20052;-66
2022/01/19 13:35:10;;;;;;;66.32;29.92;;;7.00;99.90;;;;;;5050218;28;20045;-66
2022/01/19 13:37:41;;;;;;;67.68;30.40;;;5.80;99.90;;;;;;5042481;28;20538;-66
2022/01/19 13:40:13;;;;;;;59.58;28.73;;;5.80;99.90;;;;;;5051053;28;20052;-66
2022/01/19 13:42:43;;;;;;;63.40;29.05;;;5.80;99.90;;;;;;5082732;28;20127;-66
2022/01/19 13:45:24;;;;;;;62.13;29.65;;;5.80;99.90;;;;;;5045408;28;20068;-65
2022/01/19 13:50:51;;;;;;;63.13;30.25;;;5.80;99.90;;;;;;5069256;28;20049;-66
2022/01/19 13:53:28;;;;;;;71.30;30.73;;;5.70;99.90;;;;;;5038241;28;20494;-65
2022/01/19 13:55:56;;;;;;;59.65;28.88;;;5.70;99.90;;;;;;5051545;28;20418;-66
2022/01/19 13:58:28;;;;;;;63.45;29.45;;;5.70;99.90;;;;;;5044206;28;20050;-66
2022/01/19 14:01:00;;;;;;;67.45;28.48;;;5.70;99.90;;;;;;5048863;28;20041;-66
2022/01/19 14:03:44;;;;;;;65.85;26.95;;;5.70;99.90;;;;;;5050122;28;20433;-66
2022/01/19 14:06:25;;;;;;;58.10;27.65;;;5.60;99.90;;;;;;5029415;28;20530;-67
2022/01/19 14:09:11;;;;;;;65.20;27.10;;;5.90;99.90;;;;;;5041274;28;20049;-65
2022/01/19 14:11:38;;;;;;;65.40;28.95;;;5.60;99.90;;;;;;5051722;28;20081;-66
2022/01/19 14:14:09;;;;;;;56.40;26.73;;;5.60;99.90;;;;;;5042271;28;20056;-65
2022/01/19 14:16:46;;;;;;;58.33;25.15;;;5.60;99.90;;;;;;5056111;28;20291;-64
2022/01/19 14:19:20;;;;;;;55.65;24.48;;;5.50;99.90;;;;;;5055565;28;20128;-65
2022/01/19 14:22:09;;;;;;;62.10;25.10;;;5.50;99.90;;;;;;5056967;28;20132;-66
2022/01/19 14:24:41;;;;;;;62.67;25.27;;;5.50;99.90;;;;;;5049887;28;20045;-65
2022/01/19 14:27:11;;;;;;;53.85;23.30;;;5.50;99.90;;;;;;5042875;28;20042;-65